Morteza Khodadad

Scout - Foolad
19 Nov 2028
Sunday
Process

Personality

Adaptability (14) Ambition (11) Controversy (19) Loyalty (8) Pressure (18) Professionalism (2) Sportsmanship (1) Temperament (6)

Profile

Coaching Style Democratic
License Continental C
Determination 6
Man Management 11
Motivating 10
Discipline 10
Job Satisfaction
100%
Fatigue
0%
Role Scout
Wage 21.6K p/w
Contract 14.03.2029

Performance

Behaviour Good
Training Effectiveness
46%
Player Development
40%
Injury Prevention
45%
Tactical Implementation
40%

Recent Events

Attended a recruitment meeting now
Attended a recruitment meeting now
Recommended a transfer target now
Attended a recruitment meeting now
Recommended a transfer target 7d ago
Attended a recruitment meeting 7d ago
Recommended a transfer target 7d ago
Recommended a transfer target 7d ago

Currently Monitoring

137
Player Club Status Ability Confidence Watched Last Observed Latest Vote
Saeid Saharkhizan Sepahan Active 125 / 110 51% 1 07.06.2028 -
Kiani Inge Groningen Active 97 / 111 40% 3 30.05.2028 -
Olivier Leroux Mouscron Active 119 / 113 40% 7 29.05.2028 -
Amine Boukamir Charleroi Active 114 / 119 40% 1 28.05.2028 -
Riquelme Thompson-Jones Accrington Stanley Active 103 / 111 40% 6 26.05.2028 -
Andrey Ivlev Nizhniy Novgorod Active 93 / 131 40% 6 25.05.2028 -
Martim Cunha Porto Active 116 / 113 40% 5 23.05.2028 -
Josh Nichols Oldham Athletic Active 110 / 136 40% 11 23.05.2028 -
Giovanni Leoni Lincoln City Active 139 / 147 40% 5 18.05.2028 -
Abubakar Adams Aduana Stars Active 103 / 92 40% 1 18.05.2028 -
Simone Suppa Virtus Verona Active 87 / 102 40% 5 17.05.2028 -
Jorthy Mokio ADO Den Haag Active 118 / 136 40% 4 14.05.2028 -
Thijs Kraaijeveld USM Alger Active 136 / 114 40% 2 11.05.2028 -
Kamaldeen Atiemo Wa All Stars Active 106 / 117 40% 3 10.05.2028 -
Bernardo Lima Porto Active 124 / 116 40% 2 07.05.2028 -
Kwesi Sorotu Badori Berekum Chelsea Active 86 / 110 40% 1 04.05.2028 -
Nicolò Moranduzzo Renate Active 101 / 98 40% 1 02.05.2028 -
Miguel Figueiredo Benfica Active 107 / 132 40% 3 24.04.2028 -
Mahmoud El Shenawy Masr El Makasa Active 76 / 77 40% 1 23.04.2028 -
Dmytro Strilchuk Podillia Active 75 / 104 40% 2 22.04.2028 -
Trey Nyoni Rotherham United Active 129 / 152 40% 11 20.04.2028 -
Kirill Kistenev Botev Vratsa Active 92 / 82 40% 1 20.04.2028 -
Ahmed Zaki Masr El Makasa Active 67 / 91 40% 3 16.04.2028 -
Matvey Bardachev Zenit Active 94 / 127 40% 2 14.04.2028 -
Morteza Torabi Malavan Active 104 / 116 40% 2 14.04.2028 -
Nicolas Sport Recife Active 112 / 117 40% 2 10.04.2028 -
Daniel Banjaqui Benfica Active 111 / 137 40% 1 10.04.2028 -
Federico Matarán Giana Erminio Active 86 / 100 40% 2 08.04.2028 -
Cristian Derbyshire Binga Active 85 / 81 40% 1 02.04.2028 -
Honest Ahanor Atalanta Active 140 / 136 40% 10 26.03.2028 -
Victor Hernandez Santa Fe Active 111 / 124 40% 19 21.03.2028 -
Mehdi Noorafkan Padideh Active 91 / 104 40% 2 20.03.2028 -
Jon Esenga IF Elfsborg Active 114 / 110 40% 3 13.03.2028 -
Milad Nekounam Gostaresh Foulad Active 95 / 91 40% 1 11.03.2028 -
Amir Mohammad Razzaghinia Esteghlal Active 118 / 113 40% 3 08.03.2028 -
Tobiáš Pališčák Zlin Active 109 / 95 40% 2 08.03.2028 -
Lucas Nicol Mjondalen Active 96 / 98 40% 2 06.03.2028 -
Tyler Fletcher Rotherham United Active 121 / 122 40% 3 19.02.2028 -
Makar Vysochenko Spartak Moscow Active 83 / 109 40% 1 18.02.2028 -
Khama Mabunda Platinum Stars Active 77 / 71 40% 1 31.01.2028 -
Rasmus Nehrman Gefle Active 84 / 76 40% 2 24.01.2028 -
Parham Ghannad Malavan Active 107 / 111 51% 1 17.01.2028 -
Charlie Gray Fleetwood Town Active 80 / 95 40% 2 02.01.2028 -
Lucas Camejo River Plate Active 77 / 82 40% 7 02.01.2028 -
Ilja Zhbanov Cobresal Active 90 / 94 66% 1 01.01.2028 Approve
Shahriar Ebrahimi Esteghlal Active 111 / 118 66% 1 01.01.2028 Approve
Mohammed Habib Sarwari Kariobangi Sharks Active 56 / 90 40% 1 27.12.2027 -
Andres Casseres Llaneros Active 67 / 84 40% 4 26.12.2027 -
Matias Siltanen Malmo FF Active 128 / 132 40% 2 26.12.2027 -
Sadiq Adams El-Kanemi Warriors Active 85 / 66 40% 2 22.12.2027 -
Tobias Moi Lillestrom Active 113 / 123 40% 1 18.12.2027 -
Toheeb Adebayo Shooting Stars Active 94 / 84 40% 1 17.12.2027 -
Kevin Otiende Nairobi United Active 74 / 79 40% 2 16.12.2027 -
Tiago Gordillo San Miguel Active 93 / 102 40% 1 15.12.2027 -
Gideon Manaseh Ikorodu City Active 90 / 87 40% 3 12.12.2027 -
Ignacio Fernández Boston River Active 99 / 100 40% 2 12.12.2027 -
Edvard Pettersen Sandefjord Active 119 / 127 40% 1 06.12.2027 -
Oscar Steinke Brånby Hammarby Active 101 / 97 40% 1 06.12.2027 -
David Damboama El-Kanemi Warriors Active 100 / 76 40% 1 04.12.2027 -
Yury Oyarzo Racing Active 99 / 104 40% 1 26.11.2027 -
Idriss Ashiru Kariobangi Sharks Active 58 / 65 40% 1 23.11.2027 -
Hosea Michael Remo Stars Active 102 / 82 40% 4 14.11.2027 -
Esquerdinha Notts County Active 104 / 139 40% 1 12.11.2027 -
Agustín Obregón River Plate Active 114 / 116 40% 1 11.11.2027 -
Francisco Machis Llaneros Active 88 / 87 40% 2 10.11.2027 -
Joel Ezra Enyimba Active 102 / 95 40% 4 03.11.2027 -
David Asayure Lokomotivi Active 74 / 86 40% 1 25.10.2027 -
Mohamed Moussa Koïta Mathare United Active 107 / 105 40% 1 20.10.2027 -
Adrian Skogmar Malmo FF Active 104 / 121 40% 2 19.10.2027 -
Olaniyi Saheed Kwara United Active 112 / 100 40% 2 17.10.2027 -
Juan Camilo Córdoba Deportivo Pereira Active 88 / 93 40% 1 14.10.2027 -
Chibueze Oputa Rangers International Active 100 / 105 40% 2 08.10.2027 -
Issa Yusuf Shooting Stars Active 85 / 108 40% 2 04.10.2027 -
Óscar Hinojosa Metropolitanos Active 78 / 84 40% 1 24.09.2027 -
Mpho Khethang FC Diarra Active 68 / 89 40% 2 21.09.2027 -
Isaías Silva Miramar Misiones Active 87 / 83 40% 1 21.09.2027 -
Matías Canedo Rampla Juniors Active 84 / 86 40% 1 17.09.2027 -
Godwin Oham Warri Wolves Active 70 / 84 40% 2 16.09.2027 -
Eliás Montiel Borussia Dortmund Active 125 / 145 40% 3 12.09.2027 -
Alejandro Leiva Patronato Active 91 / 110 40% 1 12.09.2027 -
Onyeuche Ujunwa Ikorodu City Active 78 / 95 40% 1 09.09.2027 -
Dylan Moody Cheltenham Town Active 121 / 124 40% 1 05.07.2027 -
Harry Clarke Preston Active 132 / 139 40% 1 28.06.2027 -
Max Johnston Derby County Active 134 / 123 40% 1 28.06.2027 -
Tamas Kleinheisler St. Pauli Active 114 / 121 66% 1 01.06.2027 Approve
Pedro Vian Seewald Dolomiti Bellunesi Active 91 / 100 40% 1 28.05.2027 -
Andrea Bertoncini Triestina Active 98 / 102 40% 1 27.05.2027 -
Caleb Yirenkyi Coventry City Active 153 / 153 40% 6 20.05.2027 -
Leandro Martins Benfica Active 88 / 85 40% 2 18.05.2027 -
Rivaldo Mkhize Black Aces Active 81 / 93 40% 3 15.05.2027 -
Afriyie Sulemana WAFA Active 102 / 92 40% 3 11.05.2027 -
Jan Bürger Northampton Town Active 121 / 114 40% 2 11.05.2027 -
Gonçalo Oliveira Benfica Active 108 / 121 40% 3 10.05.2027 -
Kazunari Kita Real Sociedad Active 102 / 99 40% 1 08.05.2027 -
Sascha Britschgi AC Milan Active 125 / 128 40% 1 03.05.2027 -
Samuele di Benedetto Twente Active 98 / 115 40% 2 15.04.2027 -
Ezra Mayers West Ham United Active 115 / 116 40% 1 11.04.2027 -
Dean Jali Platinum Stars Active 104 / 109 40% 1 10.04.2027 -
Chari Giwa US Bougouni Active 84 / 80 40% 1 07.04.2027 -
James Dornelly Peterborough United Active 99 / 111 40% 2 06.04.2027 -
Tiago Freitas Benfica Active 120 / 100 40% 1 03.04.2027 -
Zane Albarus Shrewsbury Town Active 102 / 98 40% 1 28.03.2027 -
Jenson Jones Walsall Active 77 / 105 40% 1 22.03.2027 -
Cemran Dansin Orlando Pirates Active 107 / 130 40% 1 19.03.2027 -
Mohammad Khodabandelou Persepolis Active 110 / 109 40% 1 19.01.2027 -
Manu Morlanes Mallorca Active 145 / 125 40% 3 29.12.2026 -
Marcelo Allende Mamelodi Sundowns Active 128 / 141 40% 3 28.12.2026 -
Bongani Zungu Ajax Cape Town Active 144 / 111 40% 2 27.12.2026 -
Armstrong Oko-Flex Levski Active 139 / 133 40% 2 25.12.2026 -
Marouan Azarkan Al Nasr Active 122 / 109 40% 1 16.12.2026 -
Lebogang Manyama SuperSport United Active 129 / 105 40% 1 16.12.2026 -
Bradley Zwane SuperSport United Active 126 / 103 40% 2 12.12.2026 -
Amir Hossein Hosseinzadeh Tractor Active 138 / 123 40% 2 11.12.2026 -
Isaac Matondo Koper Active 96 / 99 40% 1 09.12.2026 -
Oswin Appollis Orlando Pirates Active 112 / 128 40% 1 04.12.2026 -
Thomas Carrique Andorra Active 123 / 117 40% 1 02.12.2026 -
Suleiman Camara Slovan Bratislava Active 102 / 107 40% 1 30.11.2026 -
Juan Pablo Gallego Fehervar Active 105 / 102 40% 1 30.11.2026 -
Jens Petter Hauge Bodo/Glimt Active 134 / 134 40% 1 29.11.2026 -
Ole-Didrik Blomberg Bodo/Glimt Active 120 / 144 40% 1 26.11.2026 -
Matthias Seidl Rapid Wien Active 116 / 112 40% 1 26.11.2026 -
Crysencio Summerville Al-Hilal Active 153 / 140 40% 1 19.11.2026 -
Mehdi Hashemnejad Tractor Active 119 / 125 40% 2 18.11.2026 Needs More Info
Serginho Al Wasl Active 134 / 123 40% 1 18.11.2026 -
Ronaldo Maarman University of Pretoria Active 89 / 105 40% 1 14.11.2026 -
Mohammad Hossein Eslami Esteghlal Active 113 / 117 40% 2 13.11.2026 -
Tyrhys Dolan Espanyol Active 150 / 127 40% 2 12.11.2026 -
Oston O'runov Persepolis Active 112 / 109 40% 2 10.11.2026 Needs More Info
Themba Dala Black Aces Active 126 / 117 40% 1 10.11.2026 -
Daniel Kyerewaa Reading Active 118 / 127 40% 1 07.11.2026 -
Petar Stanić Ludogorets Active 131 / 119 40% 1 03.11.2026 -
Mohammad Mehdi Mohebi Persepolis Active 113 / 105 40% 1 28.10.2026 -
Álex Centelles Levski Active 138 / 129 40% 1 23.10.2026 -
Lechi Sadulaev Akhmat Grozny Active 128 / 115 40% 1 15.10.2026 -
Daniel Karlsbakk Sarpsborg 08 Active 104 / 120 40% 1 12.10.2026 -
Tio Cipot NK Maribor Active 109 / 109 40% 1 09.10.2026 -
Mohammed Reza Azadi Esteghlal Active 99 / 116 51% 1 03.08.2026 -